Time;durP1;ratioP1;P1;durP2;ratioP2;P2;SDS_P1;SDS_P2;PMS_P1;PMS_P2;Temp;Humidity;BMP_temperature;BMP_pressure;BME280_temperature;BME280_humidity;BME280_pressure;Samples;Min_cycle;Max_cycle;Signal;HPM_P1;HPM_P2
2023/10/20 00:01:03;;;;;;;5.07;3.40;;;;;;;;;;5010672;28;20197;-82
2023/10/20 00:03:30;;;;;;;6.07;3.40;;;;;;;;;;5014066;28;20192;-82
2023/10/20 00:05:56;;;;;;;4.90;3.47;;;;;;;;;;5014539;28;20198;-82
2023/10/20 00:08:23;;;;;;;4.10;3.70;;;;;;;;;;4997434;28;20221;-82
2023/10/20 00:10:49;;;;;;;4.00;3.10;;;;;;;;;;5010610;28;20206;-82
2023/10/20 00:13:15;;;;;;;5.07;3.40;;;;;;;;;;5010782;28;20286;-82
2023/10/20 00:15:44;;;;;;;4.00;3.70;;;;;;;;;;5008182;28;20285;-82
2023/10/20 00:18:11;;;;;;;4.23;3.83;;;;;;;;;;5011958;28;20896;-82
2023/10/20 00:20:37;;;;;;;4.40;4.00;;;;;;;;;;5016478;28;20187;-82
2023/10/20 00:23:03;;;;;;;5.90;5.23;;;;;;;;;;4997116;28;20289;-82
2023/10/20 00:25:29;;;;;;;5.30;4.80;;;;;;;;;;4996182;28;20647;-82
2023/10/20 00:27:55;;;;;;;6.97;5.40;;;;;;;;;;5010337;28;20219;-82
2023/10/20 00:30:22;;;;;;;7.60;6.10;;;;;;;;;;5011652;28;20282;-82
2023/10/20 00:32:48;;;;;;;7.20;5.73;;;;;;;;;;5011142;28;20282;-82
2023/10/20 00:35:14;;;;;;;7.37;6.67;;;;;;;;;;4996386;28;20240;-82
2023/10/20 00:37:40;;;;;;;6.77;5.80;;;;;;;;;;5010119;28;20787;-82
2023/10/20 00:40:07;;;;;;;8.57;6.10;;;;;;;;;;4994973;28;20195;-82
2023/10/20 00:42:34;;;;;;;6.80;5.90;;;;;;;;;;5010503;28;20551;-82
2023/10/20 00:45:00;;;;;;;5.17;4.77;;;;;;;;;;5027200;28;20187;-82
2023/10/20 00:47:27;;;;;;;6.13;5.50;;;;;;;;;;4996331;28;20297;-82
2023/10/20 00:49:54;;;;;;;5.53;4.90;;;;;;;;;;5012411;28;20210;-82
2023/10/20 00:52:20;;;;;;;6.50;5.10;;;;;;;;;;5018567;28;20619;-82
2023/10/20 00:54:47;;;;;;;5.80;4.90;;;;;;;;;;5010149;28;20175;-82
2023/10/20 00:57:16;;;;;;;5.53;5.03;;;;;;;;;;5009295;28;20205;-82
2023/10/20 00:59:45;;;;;;;7.10;5.70;;;;;;;;;;4994896;28;20215;-82
2023/10/20 01:02:12;;;;;;;9.20;6.53;;;;;;;;;;4981755;28;20179;-82
2023/10/20 01:04:39;;;;;;;8.67;6.97;;;;;;;;;;4995409;28;20642;-82
2023/10/20 01:07:05;;;;;;;7.23;5.70;;;;;;;;;;4996356;28;20190;-82
2023/10/20 01:09:31;;;;;;;6.93;5.03;;;;;;;;;;5013558;28;20203;-82
2023/10/20 01:11:57;;;;;;;10.30;6.87;;;;;;;;;;4999773;28;20288;-82
2023/10/20 01:14:23;;;;;;;10.37;7.73;;;;;;;;;;5021988;28;20187;-82
2023/10/20 01:16:49;;;;;;;10.37;6.90;;;;;;;;;;5016596;28;20184;-82
2023/10/20 01:19:15;;;;;;;9.10;6.87;;;;;;;;;;5020553;28;20230;-82
2023/10/20 01:21:42;;;;;;;6.30;4.93;;;;;;;;;;5004227;28;20192;-82
2023/10/20 01:24:10;;;;;;;7.47;6.23;;;;;;;;;;5000164;28;20651;-82
2023/10/20 01:26:36;;;;;;;8.23;6.00;;;;;;;;;;5001894;28;20837;-82
2023/10/20 01:29:05;;;;;;;7.80;6.37;;;;;;;;;;5018609;28;20202;-82
2023/10/20 01:31:32;;;;;;;5.93;4.60;;;;;;;;;;4999524;28;20203;-83
2023/10/20 01:33:58;;;;;;;5.07;4.50;;;;;;;;;;5016204;28;20187;-82
2023/10/20 01:36:25;;;;;;;6.20;4.20;;;;;;;;;;5001862;28;20207;-82
2023/10/20 01:38:51;;;;;;;5.70;4.40;;;;;;;;;;5016736;28;20217;-81
2023/10/20 01:41:17;;;;;;;5.67;4.03;;;;;;;;;;5014124;28;20209;-82
2023/10/20 01:43:43;;;;;;;4.47;3.20;;;;;;;;;;5017750;28;20189;-81
2023/10/20 01:46:09;;;;;;;4.00;2.80;;;;;;;;;;5014535;28;20283;-81
2023/10/20 01:48:35;;;;;;;4.77;3.57;;;;;;;;;;5003029;28;20250;-82
2023/10/20 01:51:02;;;;;;;6.37;4.77;;;;;;;;;;5020803;28;20265;-82
2023/10/20 01:53:28;;;;;;;9.37;6.17;;;;;;;;;;5018938;28;20180;-82
2023/10/20 01:55:54;;;;;;;7.80;5.73;;;;;;;;;;5015390;28;20717;-82
2023/10/20 01:58:20;;;;;;;6.30;4.20;;;;;;;;;;5017786;28;20261;-82
2023/10/20 02:00:50;;;;;;;6.87;3.93;;;;;;;;;;4998904;28;20267;-82
2023/10/20 02:03:17;;;;;;;6.60;4.07;;;;;;;;;;5002377;28;20213;-82
2023/10/20 02:05:43;;;;;;;7.57;5.20;;;;;;;;;;4984790;28;20192;-82
2023/10/20 02:08:10;;;;;;;6.17;4.50;;;;;;;;;;4999670;28;20249;-82
2023/10/20 02:10:37;;;;;;;5.17;3.80;;;;;;;;;;4996714;28;20267;-82
2023/10/20 02:13:03;;;;;;;5.83;4.20;;;;;;;;;;5012427;28;20654;-81
2023/10/20 02:15:30;;;;;;;3.80;3.40;;;;;;;;;;5013577;28;20820;-82
2023/10/20 02:17:59;;;;;;;4.63;3.43;;;;;;;;;;4999538;28;20227;-82
2023/10/20 02:20:27;;;;;;;3.87;3.43;;;;;;;;;;5014232;28;20210;-82
2023/10/20 02:22:54;;;;;;;7.17;4.70;;;;;;;;;;4997215;28;20233;-82
2023/10/20 02:25:20;;;;;;;8.23;5.30;;;;;;;;;;4997640;28;20302;-82
2023/10/20 02:27:47;;;;;;;7.80;4.70;;;;;;;;;;5012412;28;20195;-82
2023/10/20 02:30:14;;;;;;;3.63;3.20;;;;;;;;;;4978814;28;20211;-82
2023/10/20 02:32:41;;;;;;;3.83;3.10;;;;;;;;;;4994417;28;20610;-82
2023/10/20 02:35:08;;;;;;;3.30;2.67;;;;;;;;;;5014002;28;20277;-82
2023/10/20 02:37:34;;;;;;;3.00;2.73;;;;;;;;;;4993418;28;20186;-82
2023/10/20 02:40:04;;;;;;;4.80;2.97;;;;;;;;;;5014953;28;20180;-81
2023/10/20 02:42:31;;;;;;;2.90;2.70;;;;;;;;;;5009754;28;20210;-81
2023/10/20 02:44:58;;;;;;;3.63;2.50;;;;;;;;;;4998329;28;20187;-83
2023/10/20 02:47:24;;;;;;;3.77;2.77;;;;;;;;;;4996811;28;20194;-82
2023/10/20 02:49:55;;;;;;;3.00;2.50;;;;;;;;;;4994166;28;20225;-82
2023/10/20 02:52:22;;;;;;;6.00;3.80;;;;;;;;;;4997719;28;20625;-82
2023/10/20 02:54:53;;;;;;;6.43;4.27;;;;;;;;;;4996933;28;20286;-82
2023/10/20 02:57:20;;;;;;;4.17;3.40;;;;;;;;;;5012122;28;20202;-82
2023/10/20 02:59:47;;;;;;;4.93;3.43;;;;;;;;;;5026853;28;20203;-82
2023/10/20 03:02:18;;;;;;;8.87;4.83;;;;;;;;;;5012041;28;20689;-82
2023/10/20 03:04:44;;;;;;;6.37;3.30;;;;;;;;;;5012399;28;20191;-82
2023/10/20 03:07:10;;;;;;;3.77;3.10;;;;;;;;;;4996121;28;20561;-82
2023/10/20 03:09:37;;;;;;;5.00;2.90;;;;;;;;;;5010852;28;20766;-82
2023/10/20 03:12:03;;;;;;;4.77;3.10;;;;;;;;;;5009052;28;20215;-82
2023/10/20 03:14:30;;;;;;;7.37;4.27;;;;;;;;;;4998257;28;20192;-82
2023/10/20 03:16:57;;;;;;;8.30;5.30;;;;;;;;;;4994410;28;20473;-82
2023/10/20 03:19:23;;;;;;;7.57;5.00;;;;;;;;;;5012799;28;20827;-82
2023/10/20 03:21:50;;;;;;;6.97;4.70;;;;;;;;;;5008646;28;20192;-82
2023/10/20 03:24:16;;;;;;;6.30;3.83;;;;;;;;;;4982266;28;20183;-82
2023/10/20 03:26:42;;;;;;;3.80;3.20;;;;;;;;;;4995180;28;20193;-82
2023/10/20 03:29:09;;;;;;;5.67;3.60;;;;;;;;;;5012984;28;20217;-82
2023/10/20 03:31:36;;;;;;;8.97;5.00;;;;;;;;;;5012474;28;20653;-82
2023/10/20 03:34:02;;;;;;;9.93;5.73;;;;;;;;;;4989237;28;20499;-82
2023/10/20 03:36:28;;;;;;;7.97;4.87;;;;;;;;;;5008024;28;20241;-82
2023/10/20 03:38:54;;;;;;;5.83;3.37;;;;;;;;;;5011343;28;20294;-83
2023/10/20 03:41:22;;;;;;;3.10;2.73;;;;;;;;;;5019014;28;20191;-82
2023/10/20 03:43:50;;;;;;;3.90;2.80;;;;;;;;;;5033117;28;20371;-82
2023/10/20 03:46:18;;;;;;;4.77;3.40;;;;;;;;;;5017376;28;20199;-82
2023/10/20 03:48:45;;;;;;;4.23;3.37;;;;;;;;;;5016666;28;20230;-82
2023/10/20 03:51:12;;;;;;;3.30;2.80;;;;;;;;;;5000185;28;20207;-82
2023/10/20 03:53:54;;;;;;;2.73;2.50;;;;;;;;;;4987779;28;20191;-82
2023/10/20 03:56:22;;;;;;;2.57;2.33;;;;;;;;;;5017976;28;20222;-82
2023/10/20 03:58:48;;;;;;;3.80;2.50;;;;;;;;;;5012343;28;20579;-82
2023/10/20 04:01:14;;;;;;;8.40;5.43;;;;;;;;;;5013350;28;20353;-82
2023/10/20 04:03:43;;;;;;;6.60;3.67;;;;;;;;;;4990288;28;20195;-82
2023/10/20 04:06:09;;;;;;;6.23;3.80;;;;;;;;;;5007267;28;20194;-82
2023/10/20 04:08:35;;;;;;;3.90;2.80;;;;;;;;;;5006464;28;20562;-82
2023/10/20 04:11:02;;;;;;;4.27;3.00;;;;;;;;;;5002525;28;20222;-82
2023/10/20 04:13:29;;;;;;;3.60;2.73;;;;;;;;;;4978366;28;20182;-82
2023/10/20 04:15:55;;;;;;;5.00;2.77;;;;;;;;;;5008939;28;20172;-82
2023/10/20 04:18:26;;;;;;;4.17;2.70;;;;;;;;;;5008708;28;20202;-82
2023/10/20 04:20:57;;;;;;;3.77;2.50;;;;;;;;;;4990414;28;20681;-82
2023/10/20 04:23:23;;;;;;;4.00;2.30;;;;;;;;;;4991388;28;20201;-82
2023/10/20 04:25:52;;;;;;;2.50;2.30;;;;;;;;;;5007665;28;20213;-82
2023/10/20 04:28:20;;;;;;;4.50;3.10;;;;;;;;;;4977010;28;20213;-82
2023/10/20 04:52:55;;;;;;;4.83;3.00;;;;;;;;;;5013295;28;20206;-82
2023/10/20 04:58:21;;;;;;;4.47;3.27;;;;;;;;;;5011921;28;20210;-81
2023/10/20 05:00:55;;;;;;;4.53;3.33;;;;;;;;;;5010613;28;20191;-81
2023/10/20 05:03:34;;;;;;;5.30;3.40;;;;;;;;;;4979595;28;20183;-81
2023/10/20 05:08:49;;;;;;;4.40;3.50;;;;;;;;;;5008959;28;20210;-82
2023/10/20 05:11:15;;;;;;;5.73;3.30;;;;;;;;;;4975581;28;20756;-81
2023/10/20 05:13:42;;;;;;;6.03;3.20;;;;;;;;;;4990969;28;20194;-82
2023/10/20 05:16:12;;;;;;;4.83;3.47;;;;;;;;;;5010236;28;20248;-81
2023/10/20 05:18:42;;;;;;;5.50;3.67;;;;;;;;;;5006392;28;20206;-82
2023/10/20 05:21:12;;;;;;;4.17;3.47;;;;;;;;;;5009346;28;20203;-82
2023/10/20 05:23:38;;;;;;;5.33;3.90;;;;;;;;;;5008787;28;20191;-82
2023/10/20 05:26:04;;;;;;;4.10;3.70;;;;;;;;;;5007801;28;20532;-81
2023/10/20 05:28:31;;;;;;;9.03;4.33;;;;;;;;;;5012229;28;20234;-82
2023/10/20 05:30:58;;;;;;;7.03;3.90;;;;;;;;;;4994434;28;20224;-82
2023/10/20 05:33:27;;;;;;;5.23;3.93;;;;;;;;;;5013548;28;20222;-82
2023/10/20 05:35:53;;;;;;;5.37;3.90;;;;;;;;;;5015587;28;20194;-82
2023/10/20 05:38:20;;;;;;;5.57;4.10;;;;;;;;;;5013556;28;20237;-82
2023/10/20 05:40:56;;;;;;;5.20;3.93;;;;;;;;;;5013381;28;20194;-81
2023/10/20 05:43:24;;;;;;;4.43;3.93;;;;;;;;;;5014617;28;20210;-82
2023/10/20 05:45:50;;;;;;;5.43;4.43;;;;;;;;;;5014803;28;20238;-82
2023/10/20 05:48:16;;;;;;;5.47;4.63;;;;;;;;;;5009737;28;20249;-82
2023/10/20 05:50:43;;;;;;;5.90;4.37;;;;;;;;;;5010043;28;20212;-82
2023/10/20 05:53:10;;;;;;;6.03;5.10;;;;;;;;;;5011557;28;20187;-82
2023/10/20 05:55:37;;;;;;;5.37;4.70;;;;;;;;;;4991666;28;20211;-82
2023/10/20 05:58:03;;;;;;;5.57;4.57;;;;;;;;;;5028788;28;20286;-82
2023/10/20 06:00:29;;;;;;;8.37;4.93;;;;;;;;;;4995268;28;20274;-82
2023/10/20 06:02:56;;;;;;;5.43;4.50;;;;;;;;;;4995662;28;20667;-82
2023/10/20 06:05:22;;;;;;;5.97;4.80;;;;;;;;;;4980917;28;20187;-82
2023/10/20 06:07:49;;;;;;;5.87;4.70;;;;;;;;;;5006349;28;20782;-81
2023/10/20 06:10:22;;;;;;;7.03;3.90;;;;;;;;;;5004508;28;20235;-82
2023/10/20 06:12:49;;;;;;;5.20;3.93;;;;;;;;;;5006714;28;20184;-82
2023/10/20 06:15:15;;;;;;;5.17;3.80;;;;;;;;;;5022524;28;20182;-81
2023/10/20 06:17:42;;;;;;;4.77;4.03;;;;;;;;;;5017811;28;20179;-82
2023/10/20 06:20:09;;;;;;;5.63;3.90;;;;;;;;;;5014851;28;20188;-82
2023/10/20 06:22:35;;;;;;;5.80;3.83;;;;;;;;;;4991433;28;20198;-80
2023/10/20 06:25:02;;;;;;;5.40;3.63;;;;;;;;;;5008430;28;20203;-79
2023/10/20 06:27:28;;;;;;;4.17;3.53;;;;;;;;;;5016000;28;20217;-80
2023/10/20 06:29:58;;;;;;;4.43;3.80;;;;;;;;;;5007706;28;20208;-80
2023/10/20 06:32:25;;;;;;;6.40;4.00;;;;;;;;;;5031203;28;20702;-80
2023/10/20 06:34:59;;;;;;;4.83;3.67;;;;;;;;;;5010865;28;20184;-79
2023/10/20 06:37:37;;;;;;;5.43;3.90;;;;;;;;;;5016257;28;20377;-80
2023/10/20 06:40:04;;;;;;;4.47;3.90;;;;;;;;;;5015208;28;20206;-81
2023/10/20 06:42:31;;;;;;;6.37;4.77;;;;;;;;;;5028026;28;20189;-79
2023/10/20 06:44:57;;;;;;;3.90;3.50;;;;;;;;;;5018801;28;20203;-80
2023/10/20 06:47:23;;;;;;;5.80;3.80;;;;;;;;;;5017968;28;20194;-82
2023/10/20 06:49:50;;;;;;;4.73;3.93;;;;;;;;;;5027616;28;20631;-82
2023/10/20 06:52:19;;;;;;;3.63;3.33;;;;;;;;;;5025503;28;20214;-79
2023/10/20 06:54:48;;;;;;;4.40;3.70;;;;;;;;;;5001683;28;20244;-84
2023/10/20 06:57:14;;;;;;;4.70;4.23;;;;;;;;;;5031200;28;20205;-85
2023/10/20 06:59:41;;;;;;;3.90;3.50;;;;;;;;;;5015582;28;20205;-80
2023/10/20 07:02:07;;;;;;;5.87;3.80;;;;;;;;;;4994309;28;20281;-80
2023/10/20 07:04:33;;;;;;;4.83;3.40;;;;;;;;;;4998220;28;20203;-80
2023/10/20 07:06:59;;;;;;;3.27;2.97;;;;;;;;;;5014022;28;20243;-80
2023/10/20 07:09:26;;;;;;;6.27;3.50;;;;;;;;;;5009917;28;20274;-81
2023/10/20 07:11:53;;;;;;;4.50;2.93;;;;;;;;;;5013115;28;20207;-81
2023/10/20 07:14:19;;;;;;;4.77;3.33;;;;;;;;;;5007069;28;20245;-80
2023/10/20 07:16:45;;;;;;;3.50;3.17;;;;;;;;;;5012075;28;20569;-81
2023/10/20 07:19:11;;;;;;;5.33;3.20;;;;;;;;;;5012177;28;20699;-81
2023/10/20 07:21:37;;;;;;;3.03;2.77;;;;;;;;;;4996229;28;20187;-80
2023/10/20 07:24:04;;;;;;;3.63;3.03;;;;;;;;;;4996704;28;20191;-81
2023/10/20 07:26:30;;;;;;;3.97;2.93;;;;;;;;;;5012303;28;20190;-81
2023/10/20 07:28:56;;;;;;;3.03;2.73;;;;;;;;;;4993646;28;20207;-81
2023/10/20 07:31:22;;;;;;;3.03;2.70;;;;;;;;;;5009234;28;20210;-81
2023/10/20 07:33:49;;;;;;;3.07;2.77;;;;;;;;;;5009476;28;20171;-81
2023/10/20 07:36:15;;;;;;;3.57;2.50;;;;;;;;;;5013749;28;20195;-80
2023/10/20 07:38:42;;;;;;;3.00;2.70;;;;;;;;;;5009785;28;20303;-81
2023/10/20 07:41:11;;;;;;;3.10;2.70;;;;;;;;;;5013224;28;20183;-81
2023/10/20 07:43:38;;;;;;;3.10;2.80;;;;;;;;;;5012768;28;20223;-81
2023/10/20 07:46:05;;;;;;;3.10;2.80;;;;;;;;;;5021113;28;20200;-81
2023/10/20 07:48:32;;;;;;;4.47;2.80;;;;;;;;;;4991551;28;20257;-81
2023/10/20 07:51:01;;;;;;;2.93;2.60;;;;;;;;;;5013266;28;20285;-81
2023/10/20 07:53:31;;;;;;;2.87;2.57;;;;;;;;;;5028345;28;20189;-81
2023/10/20 07:55:57;;;;;;;3.23;2.93;;;;;;;;;;4997134;28;20179;-81
2023/10/20 07:58:23;;;;;;;3.30;3.00;;;;;;;;;;4996590;28;20210;-81
2023/10/20 08:00:50;;;;;;;3.37;2.97;;;;;;;;;;5012107;28;20191;-81
2023/10/20 08:03:17;;;;;;;3.43;3.13;;;;;;;;;;5009140;28;20208;-80
2023/10/20 08:05:43;;;;;;;3.90;3.40;;;;;;;;;;4996337;28;20255;-81
2023/10/20 08:08:09;;;;;;;3.20;2.90;;;;;;;;;;5010017;28;20207;-83
2023/10/20 08:10:37;;;;;;;3.60;2.90;;;;;;;;;;5011311;28;20277;-81
2023/10/20 08:13:03;;;;;;;3.60;3.30;;;;;;;;;;5009899;28;20642;-81
2023/10/20 08:15:29;;;;;;;3.53;3.20;;;;;;;;;;4994691;28;20202;-81
2023/10/20 08:17:56;;;;;;;3.63;3.10;;;;;;;;;;4995659;28;20199;-81
2023/10/20 08:20:22;;;;;;;3.23;2.93;;;;;;;;;;5008356;28;20187;-84
2023/10/20 08:22:49;;;;;;;3.77;3.47;;;;;;;;;;5007755;28;20194;-77
2023/10/20 08:25:15;;;;;;;4.03;3.63;;;;;;;;;;5001199;28;20760;-79
2023/10/20 08:27:42;;;;;;;4.00;3.60;;;;;;;;;;5006472;28;20233;-79
2023/10/20 08:30:10;;;;;;;4.20;3.80;;;;;;;;;;5012361;28;20239;-83
2023/10/20 08:32:36;;;;;;;4.63;3.33;;;;;;;;;;4989120;28;20557;-84
2023/10/20 08:35:03;;;;;;;3.13;2.83;;;;;;;;;;5010953;28;20187;-83
2023/10/20 08:37:29;;;;;;;2.67;2.47;;;;;;;;;;4980769;28;20639;-83
2023/10/20 08:39:55;;;;;;;3.10;2.80;;;;;;;;;;5017729;28;20602;-83
2023/10/20 08:42:22;;;;;;;3.03;2.77;;;;;;;;;;5014315;28;20202;-83
2023/10/20 08:44:49;;;;;;;3.00;2.80;;;;;;;;;;4993044;28;20191;-83
2023/10/20 08:47:16;;;;;;;3.90;2.90;;;;;;;;;;5002384;28;20194;-83
2023/10/20 08:49:42;;;;;;;2.80;2.60;;;;;;;;;;5012831;28;20218;-84
2023/10/20 08:52:11;;;;;;;3.10;2.80;;;;;;;;;;5012853;28;20207;-83
2023/10/20 08:54:37;;;;;;;2.97;2.60;;;;;;;;;;5013222;28;20187;-84
2023/10/20 08:57:04;;;;;;;3.40;3.10;;;;;;;;;;4985079;28;20194;-83
2023/10/20 08:59:31;;;;;;;3.30;3.00;;;;;;;;;;5010512;28;20578;-84
2023/10/20 09:01:57;;;;;;;3.40;3.10;;;;;;;;;;4996985;28;20187;-83
2023/10/20 09:04:24;;;;;;;3.40;3.10;;;;;;;;;;5017267;28;20274;-84
2023/10/20 09:06:52;;;;;;;3.37;3.10;;;;;;;;;;4993504;28;20184;-84
2023/10/20 09:09:19;;;;;;;3.40;3.00;;;;;;;;;;4992528;28;20210;-84
2023/10/20 09:11:45;;;;;;;3.80;3.37;;;;;;;;;;5011369;28;20211;-84
2023/10/20 09:14:14;;;;;;;3.57;3.27;;;;;;;;;;5004529;28;20689;-84
2023/10/20 09:16:45;;;;;;;3.77;3.47;;;;;;;;;;5000627;28;20191;-84
2023/10/20 09:19:14;;;;;;;4.13;3.63;;;;;;;;;;5001415;28;20249;-83
2023/10/20 09:21:40;;;;;;;5.03;4.10;;;;;;;;;;5022200;28;20282;-83
2023/10/20 09:24:07;;;;;;;7.03;6.20;;;;;;;;;;4992310;28;20271;-83
2023/10/20 09:26:35;;;;;;;12.60;8.30;;;;;;;;;;4991626;28;20198;-83
2023/10/20 09:29:01;;;;;;;10.03;8.13;;;;;;;;;;5007102;28;20202;-84
2023/10/20 09:31:28;;;;;;;8.50;7.63;;;;;;;;;;4994024;28;20211;-84
2023/10/20 09:33:54;;;;;;;7.83;7.03;;;;;;;;;;5010948;28;20183;-84
2023/10/20 09:36:23;;;;;;;7.20;6.30;;;;;;;;;;4997829;28;20187;-83
2023/10/20 09:38:53;;;;;;;6.50;5.83;;;;;;;;;;4996400;28;20219;-83
2023/10/20 09:41:21;;;;;;;8.37;6.30;;;;;;;;;;5010253;28;20187;-83
2023/10/20 09:44:02;;;;;;;7.33;6.30;;;;;;;;;;4993474;28;20218;-83
2023/10/20 09:46:38;;;;;;;8.10;6.50;;;;;;;;;;5014728;28;20266;-83
2023/10/20 09:49:09;;;;;;;6.27;5.67;;;;;;;;;;4996433;28;20229;-83
2023/10/20 09:51:35;;;;;;;7.77;5.73;;;;;;;;;;4997889;28;20222;-84
2023/10/20 09:54:02;;;;;;;7.47;5.80;;;;;;;;;;4994738;28;20218;-84
2023/10/20 09:56:29;;;;;;;8.57;6.20;;;;;;;;;;4998038;28;20191;-84
2023/10/20 09:59:01;;;;;;;8.13;6.77;;;;;;;;;;5013652;28;20294;-83
2023/10/20 10:01:27;;;;;;;6.90;6.20;;;;;;;;;;4993174;28;20196;-84
2023/10/20 10:04:03;;;;;;;8.20;6.30;;;;;;;;;;4991667;28;20566;-83
2023/10/20 10:06:34;;;;;;;6.87;5.83;;;;;;;;;;5012214;28;20191;-83
2023/10/20 10:09:03;;;;;;;6.90;6.20;;;;;;;;;;4997783;28;20207;-82
2023/10/20 10:11:30;;;;;;;6.67;5.97;;;;;;;;;;5013320;28;20215;-84
2023/10/20 10:14:01;;;;;;;7.67;5.77;;;;;;;;;;4993722;28;20183;-86
2023/10/20 10:16:27;;;;;;;6.17;5.27;;;;;;;;;;4996674;28;20195;-81
2023/10/20 10:18:54;;;;;;;6.63;5.80;;;;;;;;;;4993725;28;20222;-81
2023/10/20 10:21:30;;;;;;;8.87;5.33;;;;;;;;;;5032022;28;20206;-86
2023/10/20 10:24:23;;;;;;;7.17;6.47;;;;;;;;;;4995383;28;20194;-86
2023/10/20 10:27:04;;;;;;;7.30;6.47;;;;;;;;;;4989285;28;20198;-82
2023/10/20 10:29:47;;;;;;;7.53;6.13;;;;;;;;;;5014276;28;20207;-84
2023/10/20 10:32:14;;;;;;;8.10;6.17;;;;;;;;;;5013996;28;20269;-85
2023/10/20 10:34:41;;;;;;;7.60;6.80;;;;;;;;;;5010818;28;20584;-86
2023/10/20 10:37:08;;;;;;;7.57;6.77;;;;;;;;;;4999982;28;20187;-86
2023/10/20 10:39:34;;;;;;;7.10;6.20;;;;;;;;;;5010944;28;20217;-87
2023/10/20 10:42:04;;;;;;;8.87;6.90;;;;;;;;;;4979291;28;20194;-90
2023/10/20 10:44:34;;;;;;;6.73;6.03;;;;;;;;;;5015866;28;20195;-92
2023/10/20 10:47:03;;;;;;;8.47;6.30;;;;;;;;;;4990135;28;20650;-89
2023/10/20 10:49:31;;;;;;;8.27;7.40;;;;;;;;;;4993791;28;20231;-90
2023/10/20 10:51:58;;;;;;;11.43;8.50;;;;;;;;;;4979385;28;20601;-90
2023/10/20 10:54:26;;;;;;;7.90;7.10;;;;;;;;;;4997090;28;20556;-87
2023/10/20 10:56:53;;;;;;;8.10;7.17;;;;;;;;;;5013427;28;20674;-88
2023/10/20 10:59:19;;;;;;;8.87;7.23;;;;;;;;;;4983774;28;20215;-88
2023/10/20 11:01:46;;;;;;;8.70;7.10;;;;;;;;;;4996372;28;20199;-88
2023/10/20 11:04:12;;;;;;;7.10;6.40;;;;;;;;;;4997323;28;20583;-88
2023/10/20 11:06:38;;;;;;;7.60;6.90;;;;;;;;;;4986097;28;20198;-88
2023/10/20 11:09:18;;;;;;;7.30;6.60;;;;;;;;;;5037899;28;20215;-88
2023/10/20 11:11:47;;;;;;;8.67;7.17;;;;;;;;;;4994688;28;20274;-88
2023/10/20 11:14:17;;;;;;;6.73;6.00;;;;;;;;;;4998772;28;20206;-88
2023/10/20 11:16:45;;;;;;;7.20;6.50;;;;;;;;;;4979204;28;20275;-86
2023/10/20 11:19:14;;;;;;;6.87;5.50;;;;;;;;;;5013695;28;20203;-89
2023/10/20 11:21:44;;;;;;;7.33;5.10;;;;;;;;;;4978936;28;20680;-89
2023/10/20 11:24:10;;;;;;;5.10;4.60;;;;;;;;;;4993782;28;20227;-87
2023/10/20 11:26:36;;;;;;;5.20;4.50;;;;;;;;;;4997842;28;20281;-89
2023/10/20 11:29:04;;;;;;;7.13;4.43;;;;;;;;;;4992637;28;20275;-89
2023/10/20 11:31:30;;;;;;;4.20;3.80;;;;;;;;;;4995660;28;20245;-89
2023/10/20 11:33:56;;;;;;;4.13;3.70;;;;;;;;;;4977850;28;20184;-89
2023/10/20 11:36:22;;;;;;;4.50;3.77;;;;;;;;;;4979268;28;20230;-89
2023/10/20 11:38:48;;;;;;;4.10;3.70;;;;;;;;;;4994380;28;20206;-89
2023/10/20 11:41:14;;;;;;;4.97;3.90;;;;;;;;;;4991637;28;20320;-86
2023/10/20 11:43:41;;;;;;;4.10;3.70;;;;;;;;;;4995472;28;20191;-89
2023/10/20 11:46:10;;;;;;;4.53;3.40;;;;;;;;;;4980093;28;20288;-84
2023/10/20 11:48:36;;;;;;;5.40;3.97;;;;;;;;;;5011470;28;20298;-86
2023/10/20 11:51:03;;;;;;;4.00;3.60;;;;;;;;;;5000239;28;20591;-84
2023/10/20 11:53:29;;;;;;;3.70;3.30;;;;;;;;;;4997949;28;20194;-83
2023/10/20 11:55:55;;;;;;;3.90;3.50;;;;;;;;;;4982272;28;20202;-84
2023/10/20 11:58:21;;;;;;;5.07;3.97;;;;;;;;;;4996811;28;20229;-84
2023/10/20 12:00:47;;;;;;;4.90;3.93;;;;;;;;;;5031909;28;20629;-84
2023/10/20 12:03:14;;;;;;;6.80;3.97;;;;;;;;;;4994932;28;20179;-82
2023/10/20 12:05:41;;;;;;;5.73;4.00;;;;;;;;;;5014735;28;20206;-84
2023/10/20 12:08:07;;;;;;;4.40;3.97;;;;;;;;;;4993692;28;20674;-82
2023/10/20 12:10:33;;;;;;;4.40;3.67;;;;;;;;;;5014051;28;20218;-81
2023/10/20 12:13:02;;;;;;;3.93;3.47;;;;;;;;;;5017419;28;20262;-81
2023/10/20 12:15:30;;;;;;;3.97;3.60;;;;;;;;;;5022414;28;20208;-84
2023/10/20 12:17:57;;;;;;;3.87;3.43;;;;;;;;;;5002226;28;20207;-82
2023/10/20 12:20:24;;;;;;;5.20;3.70;;;;;;;;;;5013655;28;20186;-82
2023/10/20 12:22:55;;;;;;;4.40;3.30;;;;;;;;;;5008585;28;20213;-83
2023/10/20 12:25:22;;;;;;;4.57;4.17;;;;;;;;;;5013634;28;20273;-82
2023/10/20 12:27:48;;;;;;;7.50;3.50;;;;;;;;;;5017643;28;20282;-81
2023/10/20 12:30:15;;;;;;;4.83;3.73;;;;;;;;;;5013286;28;20191;-82
2023/10/20 12:32:43;;;;;;;4.50;3.00;;;;;;;;;;5015758;28;20214;-82
2023/10/20 12:35:13;;;;;;;3.27;2.97;;;;;;;;;;5013260;28;20570;-84
2023/10/20 12:37:39;;;;;;;4.07;3.30;;;;;;;;;;4998256;28;20506;-83
2023/10/20 12:40:06;;;;;;;5.13;3.00;;;;;;;;;;5018120;28;20187;-82
2023/10/20 12:42:32;;;;;;;3.93;3.00;;;;;;;;;;5017459;28;20195;-83
2023/10/20 12:45:00;;;;;;;3.73;2.80;;;;;;;;;;5017691;28;20737;-83
2023/10/20 12:47:26;;;;;;;3.40;3.10;;;;;;;;;;4982127;28;20238;-83
2023/10/20 12:49:56;;;;;;;5.33;3.30;;;;;;;;;;5012722;28;20262;-83
2023/10/20 12:52:23;;;;;;;2.97;2.67;;;;;;;;;;5016118;28;20211;-83
2023/10/20 12:54:50;;;;;;;2.73;2.50;;;;;;;;;;5012181;28;20210;-82
2023/10/20 12:57:16;;;;;;;3.47;2.57;;;;;;;;;;5009567;28;20268;-82
2023/10/20 12:59:43;;;;;;;2.60;2.40;;;;;;;;;;4995240;28;20254;-82
2023/10/20 13:02:09;;;;;;;3.30;2.40;;;;;;;;;;5001338;28;20559;-83
2023/10/20 13:04:36;;;;;;;2.53;2.17;;;;;;;;;;5003672;28;20188;-80
2023/10/20 13:07:02;;;;;;;2.40;2.00;;;;;;;;;;5012827;28;20269;-82
2023/10/20 13:09:29;;;;;;;1.70;1.60;;;;;;;;;;5000307;28;20211;-83
2023/10/20 13:11:58;;;;;;;2.33;2.00;;;;;;;;;;5004731;28;20238;-83
2023/10/20 13:14:25;;;;;;;2.20;2.00;;;;;;;;;;5003461;28;20202;-82
2023/10/20 13:16:51;;;;;;;3.67;2.00;;;;;;;;;;5017563;28;20822;-82
2023/10/20 13:19:18;;;;;;;2.23;1.80;;;;;;;;;;5007776;28;20211;-82
2023/10/20 13:21:44;;;;;;;1.93;1.70;;;;;;;;;;5034980;28;20191;-82
2023/10/20 13:24:11;;;;;;;2.00;1.73;;;;;;;;;;5014748;28;20190;-86
2023/10/20 13:26:37;;;;;;;1.60;1.50;;;;;;;;;;5000148;28;20195;-87
2023/10/20 13:29:04;;;;;;;2.73;1.60;;;;;;;;;;5012484;28;20716;-87
2023/10/20 13:31:30;;;;;;;2.83;1.73;;;;;;;;;;5011925;28;20206;-83
2023/10/20 13:33:56;;;;;;;1.63;1.53;;;;;;;;;;4979456;28;20246;-86
2023/10/20 13:36:23;;;;;;;1.80;1.50;;;;;;;;;;4996919;28;20187;-84
2023/10/20 13:38:49;;;;;;;3.03;1.50;;;;;;;;;;4997150;28;20621;-86
2023/10/20 13:41:20;;;;;;;2.60;1.30;;;;;;;;;;4993376;28;20614;-85
2023/10/20 13:43:46;;;;;;;1.33;1.20;;;;;;;;;;5013340;28;20179;-86
2023/10/20 13:46:12;;;;;;;1.40;1.30;;;;;;;;;;5031770;28;20226;-86
2023/10/20 13:48:38;;;;;;;1.67;1.30;;;;;;;;;;5015768;28;20625;-87
2023/10/20 13:51:05;;;;;;;1.90;1.37;;;;;;;;;;5005400;28;20237;-86
2023/10/20 13:53:31;;;;;;;3.70;1.20;;;;;;;;;;5021025;28;20179;-86
2023/10/20 13:55:57;;;;;;;1.67;1.20;;;;;;;;;;5014395;28;20186;-86
2023/10/20 13:58:24;;;;;;;1.30;1.20;;;;;;;;;;4997493;28;20591;-86
2023/10/20 14:00:51;;;;;;;1.27;1.10;;;;;;;;;;5013223;28;20192;-86
2023/10/20 14:03:17;;;;;;;2.40;1.30;;;;;;;;;;5017219;28;20248;-79
2023/10/20 14:05:51;;;;;;;1.53;1.17;;;;;;;;;;4994377;28;20271;-79
2023/10/20 14:08:17;;;;;;;1.73;1.30;;;;;;;;;;5011809;28;20729;-79
2023/10/20 14:10:44;;;;;;;2.57;1.40;;;;;;;;;;5013666;28;20218;-80
2023/10/20 14:13:10;;;;;;;1.47;1.27;;;;;;;;;;5009554;28;20218;-81
2023/10/20 14:15:36;;;;;;;2.20;1.50;;;;;;;;;;5011626;28;20183;-79
2023/10/20 14:18:02;;;;;;;1.87;1.30;;;;;;;;;;5004017;28;20203;-79
2023/10/20 14:20:31;;;;;;;2.47;1.10;;;;;;;;;;5012030;28;20179;-79
2023/10/20 14:22:57;;;;;;;3.00;1.40;;;;;;;;;;5011751;28;20254;-78
2023/10/20 14:25:23;;;;;;;2.20;1.50;;;;;;;;;;5006864;28;20709;-80
2023/10/20 14:27:49;;;;;;;2.30;2.10;;;;;;;;;;5012251;28;20257;-80
2023/10/20 14:30:16;;;;;;;2.47;1.77;;;;;;;;;;5010511;28;20188;-80
2023/10/20 14:32:42;;;;;;;1.70;1.30;;;;;;;;;;5008269;28;20493;-80
2023/10/20 14:35:08;;;;;;;1.40;1.10;;;;;;;;;;5010338;28;20619;-80
2023/10/20 14:37:34;;;;;;;1.33;0.90;;;;;;;;;;5003180;28;20211;-80
2023/10/20 14:40:00;;;;;;;1.03;0.83;;;;;;;;;;5007849;28;20631;-81
2023/10/20 14:42:27;;;;;;;1.03;0.80;;;;;;;;;;5009078;28;20195;-80
2023/10/20 14:44:53;;;;;;;0.90;0.80;;;;;;;;;;4993490;28;20192;-80
2023/10/20 14:47:19;;;;;;;3.63;1.03;;;;;;;;;;4994407;28;20187;-80
2023/10/20 14:49:45;;;;;;;1.10;1.00;;;;;;;;;;5012531;28;20214;-80
2023/10/20 14:52:12;;;;;;;0.87;0.87;;;;;;;;;;5009038;28;20214;-80
2023/10/20 14:54:39;;;;;;;2.40;1.17;;;;;;;;;;5009559;28;20607;-80
2023/10/20 14:57:06;;;;;;;1.20;1.10;;;;;;;;;;5009599;28;20179;-80
2023/10/20 14:59:32;;;;;;;1.80;1.37;;;;;;;;;;4996226;28;20762;-80
2023/10/20 15:01:59;;;;;;;0.90;0.90;;;;;;;;;;5009296;28;20658;-80
2023/10/20 15:04:25;;;;;;;1.10;1.00;;;;;;;;;;5011203;28;20190;-80
2023/10/20 15:06:51;;;;;;;1.73;1.10;;;;;;;;;;5010986;28;20183;-80
2023/10/20 15:09:18;;;;;;;1.20;1.07;;;;;;;;;;5014195;28;20214;-80
2023/10/20 15:11:44;;;;;;;2.87;1.17;;;;;;;;;;5008623;28;20207;-80